Time;durP1;ratioP1;P1;durP2;ratioP2;P2;SDS_P1;SDS_P2;PMS_P1;PMS_P2;Temp;Humidity;BMP_temperature;BMP_pressure;BME280_temperature;BME280_humidity;BME280_pressure;Samples;Min_cycle;Max_cycle;Signal;HPM_P1;HPM_P2
2022/01/05 00:01:52;;;;;;;13.93;3.75;;;;;;;7.66;98.86;149583.17;1635428;87;21093;-62
2022/01/05 00:04:19;;;;;;;15.43;3.27;;;;;;;7.67;98.90;149585.75;1636103;86;21104;-62
2022/01/05 00:06:46;;;;;;;13.83;3.80;;;;;;;7.66;98.97;149583.17;1635434;86;21066;-62
2022/01/05 00:09:12;;;;;;;10.13;3.20;;;;;;;7.65;99.05;149580.58;1636166;87;21086;-62
2022/01/05 00:11:40;;;;;;;12.15;3.20;;;;;;;7.67;99.13;149585.75;1635865;87;21019;-58
2022/01/05 00:14:07;;;;;;;19.48;3.37;;;;;;;7.68;99.18;149587.03;1636469;86;21094;-59
2022/01/05 00:16:34;;;;;;;10.50;3.40;;;;;;;7.68;99.19;149587.03;1636355;86;21127;-58
2022/01/05 00:19:00;;;;;;;12.13;3.10;;;;;;;7.67;99.16;149585.75;1636407;86;21090;-58
2022/01/05 00:21:27;;;;;;;11.57;3.22;;;;;;;7.65;99.18;149580.58;1637003;86;21615;-60
2022/01/05 00:23:53;;;;;;;13.45;3.40;;;;;;;7.64;99.20;149578.00;1636813;86;21059;-63
2022/01/05 00:26:20;;;;;;;11.55;3.10;;;;;;;7.61;99.32;149570.19;1637048;86;21027;-59
2022/01/05 00:28:47;;;;;;;10.25;3.30;;;;;;;7.60;99.48;149567.59;1636607;87;21215;-58
2022/01/05 00:31:14;;;;;;;10.45;3.17;;;;;;;7.61;99.47;149570.19;1636838;87;21583;-58
2022/01/05 00:33:40;;;;;;;11.55;3.50;;;;;;;7.60;99.47;149567.59;1636807;87;21087;-58
2022/01/05 00:36:08;;;;;;;11.30;3.10;;;;;;;7.61;99.46;149570.19;1636742;86;20975;-59
2022/01/05 00:38:35;;;;;;;11.08;3.60;;;;;;;7.62;99.51;149571.50;1636959;87;21012;-58
2022/01/05 00:41:02;;;;;;;13.88;3.55;;;;;;;7.62;99.61;149571.50;1636694;86;23324;-59
2022/01/05 00:43:31;;;;;;;10.40;3.27;;;;;;;7.63;99.76;149575.41;1636835;87;21378;-58
2022/01/05 00:45:57;;;;;;;14.25;3.02;;;;;;;7.65;99.83;149580.58;1632813;86;21107;-62
2022/01/05 00:48:24;;;;;;;10.85;3.47;;;;;;;7.65;99.87;149579.27;1630618;86;21484;-63
2022/01/05 00:50:50;;;;;;;11.03;3.42;;;;;;;7.65;99.93;149580.58;1630377;88;21059;-61
2022/01/05 00:53:17;;;;;;;11.10;3.35;;;;;;;7.67;99.97;149585.75;1630475;87;21504;-63
2022/01/05 00:55:44;;;;;;;13.32;3.70;;;;;;;7.69;100.00;149590.94;1630484;86;21115;-62
2022/01/05 00:58:10;;;;;;;7.83;2.92;;;;;;;7.70;100.00;149593.52;1630282;88;21942;-63
2022/01/05 01:00:37;;;;;;;10.60;3.47;;;;;;;7.71;100.00;149596.11;1630299;86;21175;-62
2022/01/05 01:03:03;;;;;;;10.72;3.17;;;;;;;7.72;100.00;149597.37;1630067;86;21537;-62
2022/01/05 01:05:30;;;;;;;10.58;3.58;;;;;;;7.71;100.00;149596.11;1630681;86;21179;-61
2022/01/05 01:07:57;;;;;;;11.08;3.65;;;;;;;7.70;100.00;149592.20;1630025;86;21591;-59
2022/01/05 01:10:24;;;;;;;13.72;3.87;;;;;;;7.70;100.00;149593.52;1630866;88;21056;-58
2022/01/05 01:12:51;;;;;;;10.98;3.52;;;;;;;7.70;100.00;149593.52;1629994;86;21102;-58
2022/01/05 01:15:17;;;;;;;16.95;3.75;;;;;;;7.69;100.00;149590.94;1630198;86;21484;-58
2022/01/05 01:17:44;;;;;;;13.05;3.47;;;;;;;7.68;100.00;149588.34;1629217;88;21144;-61
2022/01/05 01:20:11;;;;;;;16.82;3.70;;;;;;;7.68;100.00;149587.03;1629236;88;21058;-61
2022/01/05 01:22:38;;;;;;;11.95;3.33;;;;;;;7.66;100.00;149581.84;1629377;88;21019;-62
2022/01/05 01:25:05;;;;;;;12.13;3.75;;;;;;;7.65;100.00;149580.58;1629060;88;21674;-61
2022/01/05 01:27:32;;;;;;;14.58;4.35;;;;;;;7.64;100.00;149576.67;1629727;88;21007;-62
2022/01/05 01:29:59;;;;;;;12.47;3.83;;;;;;;7.62;100.00;149572.77;1629512;86;21142;-62
2022/01/05 01:32:26;;;;;;;15.63;4.22;;;;;;;7.60;100.00;149568.91;1630258;88;20969;-62
2022/01/05 01:34:52;;;;;;;16.70;4.90;;;;;;;7.58;100.00;149563.73;1629957;86;21076;-62
2022/01/05 01:37:19;;;;;;;17.27;4.37;;;;;;;7.57;100.00;149559.83;1630398;88;21067;-61
2022/01/05 01:39:46;;;;;;;15.68;4.15;;;;;;;7.56;100.00;149557.25;1630059;88;21058;-61
2022/01/05 01:42:12;;;;;;;11.43;4.15;;;;;;;7.55;100.00;149554.66;1630103;86;21861;-62
2022/01/05 01:44:39;;;;;;;15.63;4.05;;;;;;;7.56;100.00;149558.56;1630121;88;22027;-62
2022/01/05 01:47:06;;;;;;;12.95;4.40;;;;;;;7.57;100.00;149559.83;1630024;86;21042;-61
2022/01/05 01:49:33;;;;;;;15.10;4.20;;;;;;;7.56;100.00;149557.25;1630154;88;21005;-64
2022/01/05 01:52:01;;;;;;;14.05;4.40;;;;;;;7.54;100.00;149552.06;1630060;86;21039;-62
2022/01/05 01:54:28;;;;;;;14.58;4.15;;;;;;;7.52;100.00;149546.91;1630215;88;21158;-62
2022/01/05 01:56:55;;;;;;;15.20;4.20;;;;;;;7.51;100.00;149544.31;1629925;86;21079;-58
2022/01/05 01:59:21;;;;;;;16.80;4.20;;;;;;;7.49;100.00;149539.14;1630214;88;21036;-62
2022/01/05 02:01:48;;;;;;;18.70;5.22;;;;;;;7.50;100.00;149541.72;1629870;86;21642;-58
2022/01/05 02:04:16;;;;;;;19.37;4.10;;;;;;;7.48;100.00;149536.55;1630190;86;21074;-61
2022/01/05 02:06:43;;;;;;;17.77;4.50;;;;;;;7.46;100.00;149532.64;1629823;86;21160;-62
2022/01/05 02:09:10;;;;;;;17.95;4.20;;;;;;;7.44;100.00;149528.78;1629771;86;21142;-62
2022/01/05 02:11:38;;;;;;;14.25;4.42;;;;;;;7.43;100.00;149526.20;1629816;86;21608;-59
2022/01/05 02:14:06;;;;;;;21.20;5.20;;;;;;;7.42;100.00;149523.61;1629815;86;21078;-62
2022/01/05 02:16:35;;;;;;;15.78;4.40;;;;;;;7.41;100.00;149521.03;1630863;86;20929;-62
2022/01/05 02:19:02;;;;;;;17.73;4.85;;;;;;;7.40;100.00;149518.39;1629726;86;21099;-62
2022/01/05 02:21:37;;;;;;;15.05;4.37;;;;;;;7.36;100.00;149508.03;1630564;86;21047;-58
2022/01/05 02:24:06;;;;;;;;;;;;;;;7.33;100.00;149500.28;1632553;86;21146;-60
2022/01/05 02:26:33;;;;;;;18.32;4.65;;;;;;;7.31;100.00;149495.11;1630061;86;20148;-62
2022/01/05 02:29:00;;;;;;;15.72;4.62;;;;;;;7.27;100.00;149484.77;1630178;86;21079;-61
2022/01/05 02:31:27;;;;;;;20.55;4.80;;;;;;;7.23;100.00;149475.69;1630749;86;21232;-61
2022/01/05 02:33:53;;;;;;;19.75;5.03;;;;;;;7.20;100.00;149466.66;1630153;86;21718;-58
2022/01/05 02:36:21;;;;;;;16.00;4.55;;;;;;;7.15;100.00;149456.25;1630789;86;21067;-63
2022/01/05 02:38:49;;;;;;;15.53;4.80;;;;;;;7.11;100.00;149445.91;1629957;86;21503;-59
2022/01/05 02:41:16;;;;;;;18.60;5.35;;;;;;;7.09;100.00;149440.75;1630729;86;21710;-59
2022/01/05 02:43:43;;;;;;;15.75;4.87;;;;;;;7.07;100.00;149434.25;1630168;88;21118;-63
2022/01/05 02:46:18;;;;;;;15.40;4.40;;;;;;;7.03;100.00;149425.22;1632974;86;21106;-58
2022/01/05 02:48:46;;;;;;;16.20;4.85;;;;;;;6.99;100.00;149414.88;1636608;87;20915;-59
2022/01/05 02:51:13;;;;;;;14.13;4.78;;;;;;;6.96;100.00;149407.08;1636842;86;21630;-58
2022/01/05 02:53:39;;;;;;;14.73;4.85;;;;;;;6.92;100.00;149396.73;1636824;86;21039;-59
2022/01/05 02:56:06;;;;;;;21.17;4.95;;;;;;;6.88;100.00;149388.97;1636693;87;21440;-57
2022/01/05 02:58:32;;;;;;;27.35;5.62;;;;;;;6.86;100.00;149383.80;1637105;87;21346;-59
2022/01/05 03:01:00;;;;;;;14.58;4.55;;;;;;;6.83;100.00;149376.03;1636704;86;21082;-63
2022/01/05 03:03:26;;;;;;;18.65;5.15;;;;;;;6.80;100.00;149368.28;1637443;87;21477;-65
2022/01/05 03:05:53;;;;;;;15.03;4.92;;;;;;;6.76;100.00;149357.94;1636614;87;21074;-59
2022/01/05 03:08:20;;;;;;;18.90;5.03;;;;;;;6.73;100.00;149350.13;1637034;86;21127;-63
2022/01/05 03:10:47;;;;;;;15.28;4.53;;;;;;;6.68;100.00;149338.53;1636845;87;21094;-61
2022/01/05 03:13:14;;;;;;;14.43;4.55;;;;;;;6.69;100.00;149341.11;1636852;87;21105;-63
2022/01/05 03:15:41;;;;;;;19.30;5.12;;;;;;;6.68;100.00;149337.20;1636883;86;21088;-62
2022/01/05 03:18:08;;;;;;;18.23;5.12;;;;;;;6.68;100.00;149337.20;1636554;86;21019;-62
2022/01/05 03:20:34;;;;;;;19.17;5.05;;;;;;;6.66;100.00;149332.03;1637242;86;21117;-63
2022/01/05 03:23:03;;;;;;;11.20;4.37;;;;;;;6.65;100.00;149329.45;1636938;87;21054;-61
2022/01/05 03:25:30;;;;;;;16.45;4.40;;;;;;;6.63;100.00;149324.28;1637407;86;21032;-61
2022/01/05 03:27:57;;;;;;;15.45;4.67;;;;;;;6.65;100.00;149329.45;1636970;86;21067;-58
2022/01/05 03:30:26;;;;;;;12.33;4.53;;;;;;;6.65;100.00;149330.77;1637061;87;21556;-58
2022/01/05 03:35:29;;;;;;;15.05;4.17;;;;;;;6.65;100.00;149329.45;1637124;87;21421;-58
2022/01/05 03:37:56;;;;;;;10.53;4.08;;;;;;;6.66;100.00;149333.36;1636721;86;21022;-59
2022/01/05 03:40:23;;;;;;;13.83;4.60;;;;;;;6.69;100.00;149339.80;1636822;86;21134;-59
2022/01/05 03:42:50;;;;;;;11.38;4.08;;;;;;;6.70;100.00;149342.37;1637212;87;21150;-57
2022/01/05 03:45:16;;;;;;;17.95;4.50;;;;;;;6.72;100.00;149347.55;1636827;87;21134;-58
2022/01/05 03:47:44;;;;;;;14.10;4.62;;;;;;;6.73;100.00;149351.45;1636797;85;21369;-57
2022/01/05 03:50:10;;;;;;;14.58;4.97;;;;;;;6.73;100.00;149350.13;1636693;86;21031;-59
2022/01/05 03:52:37;;;;;;;15.93;4.40;;;;;;;6.70;100.00;149343.70;1636803;86;21504;-63
2022/01/05 03:55:06;;;;;;;16.00;4.50;;;;;;;6.70;100.00;149343.70;1636560;86;21134;-57
2022/01/05 03:57:34;;;;;;;14.13;4.70;;;;;;;6.71;100.00;149346.28;1637288;86;21124;-62
2022/01/05 04:00:00;;;;;;;13.62;4.90;;;;;;;6.71;100.00;149344.97;1636447;86;21618;-58
2022/01/05 04:02:27;;;;;;;17.75;5.33;;;;;;;6.73;100.00;149350.13;1637332;86;21067;-58
2022/01/05 04:04:54;;;;;;;12.95;4.40;;;;;;;6.72;100.00;149347.55;1636581;86;21107;-62
2022/01/05 04:07:21;;;;;;;15.75;4.47;;;;;;;6.70;100.00;149343.70;1637088;86;21006;-62
2022/01/05 04:09:47;;;;;;;14.33;4.47;;;;;;;6.71;100.00;149344.97;1636818;86;21911;-62
2022/01/05 04:12:14;;;;;;;10.45;4.42;;;;;;;6.70;100.00;149342.37;1636978;86;21447;-63
2022/01/05 04:14:42;;;;;;;16.75;4.80;;;;;;;6.68;100.00;149337.20;1636783;86;21023;-62
2022/01/05 04:17:08;;;;;;;14.58;4.62;;;;;;;6.66;100.00;149333.36;1636891;87;21074;-59
2022/01/05 04:19:35;;;;;;;13.00;4.80;;;;;;;6.64;100.00;149326.88;1636832;87;20975;-58
2022/01/05 04:22:03;;;;;;;10.65;4.40;;;;;;;6.61;100.00;149319.11;1636802;87;21515;-58
2022/01/05 04:24:30;;;;;;;11.18;4.22;;;;;;;6.58;100.00;149313.94;1636759;86;21397;-59
2022/01/05 04:26:57;;;;;;;14.98;4.33;;;;;;;6.58;100.00;149312.63;1636374;86;21070;-63
2022/01/05 04:29:23;;;;;;;14.10;4.25;;;;;;;6.57;100.00;149311.34;1636761;86;22384;-62
2022/01/05 04:31:50;;;;;;;15.25;4.35;;;;;;;6.59;100.00;149315.20;1636490;87;21082;-63
2022/01/05 04:34:18;;;;;;;12.88;3.87;;;;;;;6.60;100.00;149317.80;1636416;87;21772;-58
2022/01/05 04:36:46;;;;;;;10.75;4.00;;;;;;;6.59;100.00;149316.53;1636346;86;21012;-59
2022/01/05 04:39:13;;;;;;;10.70;4.30;;;;;;;6.61;100.00;149319.11;1636458;87;21592;-59
2022/01/05 04:41:39;;;;;;;8.55;3.92;;;;;;;6.62;100.00;149322.97;1636561;86;21060;-57
2022/01/05 04:44:06;;;;;;;12.43;4.35;;;;;;;6.64;100.00;149326.88;1636436;87;21142;-59
2022/01/05 04:46:32;;;;;;;7.83;3.50;;;;;;;6.65;100.00;149329.45;1636705;85;22007;-58
2022/01/05 04:49:00;;;;;;;13.60;3.45;;;;;;;6.67;100.00;149334.62;1636217;87;21022;-58
2022/01/05 04:51:27;;;;;;;9.95;3.80;;;;;;;6.69;100.00;149339.80;1636678;87;21103;-58
2022/01/05 04:53:53;;;;;;;8.23;3.80;;;;;;;6.72;100.00;149348.87;1636326;87;21047;-58
2022/01/05 04:56:20;;;;;;;9.28;3.90;;;;;;;6.76;100.00;149357.94;1636566;86;21500;-57
2022/01/05 04:58:47;;;;;;;12.50;4.50;;;;;;;6.78;100.00;149361.80;1636364;87;21165;-62
2022/01/05 05:01:14;;;;;;;9.55;3.65;;;;;;;6.80;100.00;149366.97;1636486;86;21059;-58
2022/01/05 05:03:41;;;;;;;11.60;3.92;;;;;;;6.83;100.00;149376.03;1636428;86;21083;-58
2022/01/05 05:06:07;;;;;;;13.13;3.77;;;;;;;6.84;100.00;149378.63;1636115;87;21563;-58
2022/01/05 05:08:34;;;;;;;8.13;4.05;;;;;;;6.85;100.00;149381.22;1636794;86;20987;-58
2022/01/05 05:11:01;;;;;;;8.33;3.90;;;;;;;6.88;100.00;149388.97;1636188;86;22234;-59
2022/01/05 05:13:27;;;;;;;9.85;3.92;;;;;;;6.87;100.00;149386.37;1636633;87;21019;-60
2022/01/05 05:15:54;;;;;;;6.55;3.42;;;;;;;6.87;100.00;149386.37;1635920;86;21066;-59
2022/01/05 05:18:20;;;;;;;10.40;4.22;;;;;;;6.86;100.00;149383.80;1636587;86;21583;-59
2022/01/05 05:20:47;;;;;;;7.95;3.52;;;;;;;6.87;100.00;149385.13;1636433;86;21110;-63
2022/01/05 05:23:14;;;;;;;7.83;3.52;;;;;;;6.87;100.00;149386.37;1636689;86;21132;-62
2022/01/05 05:25:40;;;;;;;7.87;3.65;;;;;;;6.87;100.00;149386.37;1636593;86;21460;-62
2022/01/05 05:28:07;;;;;;;8.70;3.60;;;;;;;6.89;100.00;149390.28;1636697;87;21138;-59
2022/01/05 05:30:35;;;;;;;10.18;4.10;;;;;;;6.88;100.00;149388.97;1636853;87;21480;-59
2022/01/05 05:33:03;;;;;;;11.03;3.70;;;;;;;6.88;100.00;149387.70;1636744;87;21537;-62
2022/01/05 05:35:30;;;;;;;10.30;3.98;;;;;;;6.87;100.00;149386.37;1636957;86;21152;-63
2022/01/05 05:37:57;;;;;;;9.53;3.87;;;;;;;6.87;99.88;149386.37;1636374;87;21075;-63
2022/01/05 05:40:24;;;;;;;8.70;3.60;;;;;;;6.84;99.67;149378.63;1636763;87;21562;-62
2022/01/05 05:42:51;;;;;;;9.25;4.00;;;;;;;6.84;99.56;149378.63;1636442;87;21172;-58
2022/01/05 05:45:17;;;;;;;12.82;4.33;;;;;;;6.82;99.42;149373.45;1636510;86;21038;-59
2022/01/05 05:47:44;;;;;;;15.78;4.65;;;;;;;6.81;99.26;149370.88;1632262;86;21163;-64
2022/01/05 05:50:11;;;;;;;9.28;3.77;;;;;;;6.81;99.15;149369.55;1629872;88;21115;-62
2022/01/05 05:52:38;;;;;;;10.38;4.30;;;;;;;6.80;99.04;149368.28;1630196;86;21131;-62
2022/01/05 05:55:06;;;;;;;10.03;3.80;;;;;;;6.80;98.99;149366.97;1629570;86;21098;-58
2022/01/05 05:57:33;;;;;;;10.55;4.28;;;;;;;6.79;98.82;149365.69;1630359;88;21465;-59
2022/01/05 05:59:59;;;;;;;5.78;3.40;;;;;;;6.78;98.71;149361.80;1630078;86;21145;-58
2022/01/05 06:02:26;;;;;;;6.33;3.87;;;;;;;6.78;98.51;149363.11;1630213;86;21011;-58
2022/01/05 06:04:52;;;;;;;9.95;4.28;;;;;;;6.76;98.45;149357.94;1629914;88;21018;-59
2022/01/05 06:07:19;;;;;;;8.95;4.00;;;;;;;6.78;98.26;149361.80;1607788;86;21172;-63
2022/01/05 06:09:46;;;;;;;10.15;4.30;;;;;;;6.77;98.15;149360.53;1630447;88;20972;-59
2022/01/05 06:12:14;;;;;;;16.77;4.80;;;;;;;6.77;97.83;149359.20;1629948;86;21110;-59
2022/01/05 06:14:42;;;;;;;11.43;4.08;;;;;;;6.75;97.70;149355.36;1630316;88;20980;-59
2022/01/05 06:17:09;;;;;;;9.68;4.47;;;;;;;6.74;97.65;149352.72;1630129;88;21071;-59
2022/01/05 06:19:36;;;;;;;8.23;3.98;;;;;;;6.75;97.69;149355.36;1630397;86;21088;-62
2022/01/05 06:22:04;;;;;;;9.13;4.20;;;;;;;6.78;97.59;149363.11;1629923;86;21091;-62
2022/01/05 06:24:31;;;;;;;7.47;3.83;;;;;;;6.81;97.57;149369.55;1630471;88;21385;-62
2022/01/05 06:26:58;;;;;;;8.03;4.25;;;;;;;6.82;97.41;149373.45;1629709;86;21157;-63
2022/01/05 06:29:25;;;;;;;10.70;4.25;;;;;;;6.83;97.14;149376.03;1630586;86;21496;-59
2022/01/05 06:31:52;;;;;;;12.78;4.60;;;;;;;6.83;96.97;149376.03;1630211;86;20992;-59
2022/01/05 06:34:18;;;;;;;8.48;3.70;;;;;;;6.85;96.91;149381.22;1630130;86;21166;-58
2022/01/05 06:36:45;;;;;;;10.85;4.03;;;;;;;6.88;96.88;149387.70;1630041;88;21390;-63
2022/01/05 06:39:12;;;;;;;7.42;4.03;;;;;;;6.88;96.65;149388.97;1629768;86;21063;-59
2022/01/05 06:41:39;;;;;;;12.47;4.85;;;;;;;6.90;96.47;149391.56;1630341;88;21024;-59
2022/01/05 06:44:06;;;;;;;9.15;4.15;;;;;;;6.90;96.30;149391.56;1629756;86;21533;-58
2022/01/05 06:46:33;;;;;;;13.60;4.25;;;;;;;6.88;96.13;149388.97;1630394;86;21012;-59
2022/01/05 06:49:00;;;;;;;8.63;4.37;;;;;;;6.88;96.08;149388.97;1636619;87;22683;-62
2022/01/05 06:51:26;;;;;;;10.40;4.80;;;;;;;6.88;96.15;149388.97;1637005;87;21078;-63
2022/01/05 06:53:53;;;;;;;8.30;4.17;;;;;;;6.88;96.08;149388.97;1636503;87;21520;-63
2022/01/05 06:56:19;;;;;;;13.70;4.87;;;;;;;6.88;96.08;149388.97;1636694;86;21154;-62
2022/01/05 06:58:46;;;;;;;8.15;4.22;;;;;;;6.88;96.08;149388.97;1636525;86;21406;-64
2022/01/05 07:01:13;;;;;;;11.53;4.58;;;;;;;6.92;96.08;149396.73;1636630;86;21496;-62
2022/01/05 07:03:40;;;;;;;9.60;4.17;;;;;;;6.96;96.06;149407.08;1636459;86;21425;-62
2022/01/05 07:06:07;;;;;;;12.47;4.70;;;;;;;7.01;95.92;149420.05;1636492;86;21543;-63
2022/01/05 07:08:35;;;;;;;8.55;4.10;;;;;;;7.06;95.79;149431.66;1636767;87;21028;-58
2022/01/05 07:11:03;;;;;;;9.48;4.85;;;;;;;7.07;95.39;149434.25;1636378;86;21066;-60
2022/01/05 07:13:29;;;;;;;10.43;4.55;;;;;;;7.10;95.15;149442.06;1636909;86;21506;-59
2022/01/05 07:15:56;;;;;;;9.58;5.05;;;;;;;7.11;94.99;149444.64;1636518;86;21043;-59
2022/01/05 07:18:23;;;;;;;8.30;4.47;;;;;;;7.15;95.01;149454.98;1636831;86;21285;-60
2022/01/05 07:20:52;;;;;;;9.08;4.30;;;;;;;7.20;94.95;149466.66;1635572;86;21030;-64
2022/01/05 07:23:18;;;;;;;7.58;3.98;;;;;;;7.24;94.78;149478.27;1636636;86;21504;-59
2022/01/05 07:25:45;;;;;;;10.03;4.45;;;;;;;7.27;94.62;149484.77;1636550;86;21152;-60
2022/01/05 07:28:12;;;;;;;12.80;4.30;;;;;;;7.30;94.54;149492.53;1636203;86;21086;-59
2022/01/05 07:30:39;;;;;;;9.08;4.60;;;;;;;7.33;94.36;149499.02;1636436;87;21539;-64
2022/01/05 07:33:06;;;;;;;13.62;4.30;;;;;;;7.34;94.13;149501.59;1635942;86;21067;-64
2022/01/05 07:35:34;;;;;;;7.83;4.25;;;;;;;7.36;93.97;149506.78;1636602;86;20952;-63
2022/01/05 07:38:01;;;;;;;8.95;4.75;;;;;;;7.38;94.01;149513.22;1636280;86;21231;-63
2022/01/05 07:40:28;;;;;;;9.55;4.37;;;;;;;7.42;93.92;149523.61;1636504;87;21082;-64
2022/01/05 07:42:55;;;;;;;8.38;4.67;;;;;;;7.47;93.79;149535.22;1636087;86;21142;-63
2022/01/05 07:45:22;;;;;;;11.40;4.70;;;;;;;7.51;93.69;149544.31;1636400;87;21306;-63
2022/01/05 07:47:48;;;;;;;7.10;4.42;;;;;;;7.52;93.59;149546.91;1636354;86;21035;-62
2022/01/05 07:50:16;;;;;;;9.35;4.67;;;;;;;7.55;93.48;149554.66;1636339;87;21532;-63
2022/01/05 07:52:45;;;;;;;10.35;4.42;;;;;;;7.59;93.44;149565.00;1636533;87;21039;-63
2022/01/05 07:55:13;;;;;;;10.65;4.37;;;;;;;7.66;93.49;149583.17;1636722;87;21600;-63
2022/01/05 07:57:39;;;;;;;7.25;4.55;;;;;;;7.75;93.23;149605.19;1636534;86;21107;-65
2022/01/05 08:00:08;;;;;;;11.65;4.83;;;;;;;7.84;93.05;149627.16;1636128;87;21559;-63
2022/01/05 08:02:35;;;;;;;8.23;4.65;;;;;;;7.92;92.59;149647.91;1637017;86;21829;-63
2022/01/05 08:05:03;;;;;;;12.30;4.85;;;;;;;7.98;92.28;149663.44;1636326;86;21059;-63
2022/01/05 08:07:29;;;;;;;12.63;5.58;;;;;;;8.07;91.97;149684.14;1636955;87;21473;-63
2022/01/05 08:09:56;;;;;;;8.40;4.95;;;;;;;8.16;91.71;149707.48;1636441;86;21622;-64
2022/01/05 08:12:23;;;;;;;10.13;5.12;;;;;;;8.26;91.29;149733.38;1636564;87;21176;-63
2022/01/05 08:14:49;;;;;;;8.40;4.83;;;;;;;8.37;91.05;149759.31;1636641;87;21148;-64
2022/01/05 08:17:16;;;;;;;8.73;5.25;;;;;;;8.46;90.63;149782.61;1636665;87;21038;-60
2022/01/05 08:19:43;;;;;;;12.10;5.87;;;;;;;8.56;90.30;149808.59;1636901;87;21085;-59
2022/01/05 08:22:10;;;;;;;10.98;5.87;;;;;;;8.67;89.89;149835.81;1636554;86;21098;-60
2022/01/05 08:24:37;;;;;;;11.00;6.15;;;;;;;8.76;89.39;149857.84;1637210;86;21398;-59
2022/01/05 08:27:05;;;;;;;11.80;5.87;;;;;;;8.87;89.07;149886.33;1636632;86;21148;-59
2022/01/05 08:29:32;;;;;;;10.23;6.12;;;;;;;8.99;88.72;149914.87;1637341;87;21039;-59
2022/01/05 08:32:02;;;;;;;11.08;5.55;;;;;;;9.13;88.53;149951.12;1636467;86;21119;-59
2022/01/05 08:34:32;;;;;;;14.07;6.05;;;;;;;9.26;88.02;149982.27;1636870;86;21764;-60
2022/01/05 08:36:59;;;;;;;9.58;5.78;;;;;;;9.36;87.28;150006.91;1636774;86;21034;-61
2022/01/05 08:39:25;;;;;;;13.43;6.08;;;;;;;9.44;86.82;150028.95;1636815;86;21147;-58
2022/01/05 08:41:52;;;;;;;15.63;7.30;;;;;;;9.53;86.19;150051.00;1636557;87;21047;-59
2022/01/05 08:44:19;;;;;;;15.18;7.62;;;;;;;9.61;85.66;150070.41;1636741;86;21058;-58
2022/01/05 08:46:46;;;;;;;14.40;7.75;;;;;;;9.70;85.20;150093.78;1636964;87;20963;-58
2022/01/05 08:49:14;;;;;;;17.80;8.38;;;;;;;9.80;84.67;150117.09;1636500;86;21588;-59
2022/01/05 08:51:41;;;;;;;15.10;7.50;;;;;;;9.88;84.38;150137.88;1636913;86;21417;-59
2022/01/05 08:54:08;;;;;;;11.60;6.47;;;;;;;9.94;83.74;150153.44;1636430;86;21075;-59
2022/01/05 08:56:35;;;;;;;14.58;6.67;;;;;;;9.97;83.25;150161.20;1636923;87;21358;-59
2022/01/05 08:59:01;;;;;;;13.32;6.83;;;;;;;9.96;83.05;150158.61;1636425;86;21078;-60
2022/01/05 09:01:28;;;;;;;11.15;6.05;;;;;;;9.98;82.87;150162.53;1636898;86;21603;-59
2022/01/05 09:03:54;;;;;;;13.95;6.25;;;;;;;9.99;82.46;150165.12;1636476;86;21166;-59
2022/01/05 09:06:22;;;;;;;10.25;6.00;;;;;;;10.00;82.29;150168.98;1637084;86;21078;-59
2022/01/05 09:08:49;;;;;;;12.05;6.70;;;;;;;10.02;82.15;150174.17;1636425;86;21401;-58
2022/01/05 09:11:17;;;;;;;13.15;6.70;;;;;;;10.06;82.22;150181.94;1636551;86;21843;-59
2022/01/05 09:13:46;;;;;;;10.28;6.35;;;;;;;10.09;82.29;150189.77;1636800;86;21094;-59
2022/01/05 09:16:13;;;;;;;9.70;5.92;;;;;;;10.10;82.42;150192.36;1636209;86;23151;-59
2022/01/05 09:18:39;;;;;;;9.88;5.85;;;;;;;10.09;82.29;150191.03;1636629;86;21042;-60
2022/01/05 09:21:06;;;;;;;13.85;6.00;;;;;;;10.11;82.24;150194.95;1636182;86;21190;-60
2022/01/05 09:23:33;;;;;;;15.32;6.50;;;;;;;10.14;82.27;150202.73;1636846;86;21031;-59
2022/01/05 09:25:59;;;;;;;9.88;6.47;;;;;;;10.20;82.26;150217.02;1636457;86;21441;-58
2022/01/05 09:28:26;;;;;;;12.33;6.12;;;;;;;10.27;82.28;150236.44;1636629;86;21142;-60
2022/01/05 09:30:53;;;;;;;14.65;7.37;;;;;;;10.38;82.31;150262.41;1636831;86;20989;-63
2022/01/05 09:33:22;;;;;;;19.35;7.60;;;;;;;10.50;82.10;150293.61;1636765;86;21262;-62
2022/01/05 09:35:50;;;;;;;12.35;6.55;;;;;;;10.60;81.76;150319.55;1637231;86;21030;-60
2022/01/05 09:38:36;;;;;;;11.75;6.47;;;;;;;10.70;81.25;150344.20;1636622;86;21172;-59
2022/01/05 09:43:51;;;;;;;;;;;;;;;10.85;80.47;150380.56;1639317;86;21028;-60
2022/01/05 09:46:34;;;;;;;13.30;7.37;;;;;;;10.92;80.28;150397.41;1636439;86;20491;-59
2022/01/05 09:49:13;;;;;;;15.83;7.10;;;;;;;11.00;80.04;150418.20;1635489;85;21647;-60
2022/01/05 09:51:41;;;;;;;14.13;7.35;;;;;;;11.09;79.73;150441.55;1609098;87;21509;-59
2022/01/05 09:54:12;;;;;;;13.55;7.28;;;;;;;11.15;79.30;150455.84;1636463;86;21216;-60
2022/01/05 09:56:39;;;;;;;10.08;6.30;;;;;;;11.17;79.21;150461.02;1636672;86;21107;-59
2022/01/05 09:59:06;;;;;;;11.33;7.17;;;;;;;11.21;79.23;150471.41;1636317;86;21066;-59
2022/01/05 10:01:36;;;;;;;11.68;7.20;;;;;;;11.24;79.24;150479.19;1636458;87;21838;-59
2022/01/05 10:04:03;;;;;;;12.35;6.95;;;;;;;11.31;79.18;150496.06;1636323;87;21147;-60
2022/01/05 10:06:34;;;;;;;13.18;6.60;;;;;;;11.36;78.95;150509.05;1636317;86;21148;-59
2022/01/05 10:09:01;;;;;;;12.90;7.15;;;;;;;11.44;79.01;150528.53;1636329;86;21198;-60
2022/01/05 10:11:29;;;;;;;11.85;6.87;;;;;;;11.52;79.06;150548.02;1636231;86;21524;-61
2022/01/05 10:13:55;;;;;;;13.20;7.60;;;;;;;11.58;78.86;150564.91;1636863;86;20996;-60
2022/01/05 10:16:24;;;;;;;16.07;7.42;;;;;;;11.63;78.92;150575.28;1636246;87;21086;-59
2022/01/05 10:18:51;;;;;;;13.45;6.37;;;;;;;11.68;78.98;150589.58;1636853;86;22548;-60
2022/01/05 10:21:17;;;;;;;10.05;6.25;;;;;;;11.74;78.77;150605.16;1635997;86;21126;-65
2022/01/05 10:23:52;;;;;;;10.63;6.67;;;;;;;11.80;78.45;150618.12;1636361;87;21091;-63
2022/01/05 10:26:36;;;;;;;9.35;5.75;;;;;;;11.81;78.27;150622.05;1636481;86;21102;-61
2022/01/05 10:29:20;;;;;;;11.45;6.50;;;;;;;11.85;78.06;150632.44;1636378;86;21114;-59
2022/01/05 10:31:59;;;;;;;11.22;6.78;;;;;;;11.88;77.74;150638.94;1636499;86;21127;-65
2022/01/05 10:34:28;;;;;;;13.55;7.00;;;;;;;11.94;77.55;150653.25;1636345;86;21082;-63
2022/01/05 10:36:57;;;;;;;11.15;5.87;;;;;;;11.98;77.32;150664.89;1636532;86;21496;-64
2022/01/05 10:39:35;;;;;;;14.90;5.37;;;;;;;12.02;76.63;150675.33;1636513;86;21006;-64
2022/01/05 10:42:12;;;;;;;10.95;5.70;;;;;;;12.00;76.13;150670.09;1635960;86;21500;-63
2022/01/05 10:44:46;;;;;;;12.18;5.62;;;;;;;11.94;75.74;150654.52;1637056;86;21512;-64
2022/01/05 10:47:15;;;;;;;13.18;5.80;;;;;;;11.87;75.85;150636.34;1636955;86;21059;-63
2022/01/05 10:49:42;;;;;;;14.70;6.22;;;;;;;11.82;76.10;150623.31;1632204;85;20996;-63
2022/01/05 10:52:29;;;;;;;13.95;7.00;;;;;;;11.80;76.38;150618.12;1630295;86;21601;-63
2022/01/05 10:55:12;;;;;;;18.37;6.72;;;;;;;11.79;76.70;150616.86;1630109;86;21140;-65
2022/01/05 10:57:43;;;;;;;15.48;6.92;;;;;;;11.79;76.95;150615.53;1630326;86;21145;-63
2022/01/05 11:00:12;;;;;;;13.32;6.80;;;;;;;11.82;77.12;150624.64;1626246;86;21487;-62
2022/01/05 11:02:40;;;;;;;16.73;7.20;;;;;;;11.86;77.18;150633.75;1631088;88;20987;-62
2022/01/05 11:05:13;;;;;;;15.55;6.72;;;;;;;11.89;77.23;150641.53;1630180;86;21537;-63
2022/01/05 11:07:42;;;;;;;13.50;6.30;;;;;;;11.93;77.25;150651.92;1630781;88;20924;-64
2022/01/05 11:10:16;;;;;;;13.53;5.33;;;;;;;11.95;77.18;150657.11;1630564;86;21775;-64
2022/01/05 11:12:49;;;;;;;19.57;5.30;;;;;;;11.97;76.42;150662.30;1630056;87;20884;-61
2022/01/05 11:15:31;;;;;;;9.58;4.55;;;;;;;11.88;75.54;150640.22;1630230;86;21454;-63
2022/01/05 11:18:12;;;;;;;10.82;5.05;;;;;;;11.71;75.44;150597.38;1630419;88;21475;-64
2022/01/05 11:20:49;;;;;;;10.63;4.37;;;;;;;11.59;75.67;150567.50;1630673;86;21047;-63
2022/01/05 11:23:16;;;;;;;16.17;6.42;;;;;;;11.47;75.87;150536.31;1626423;86;21168;-63
2022/01/05 11:25:44;;;;;;;19.42;7.58;;;;;;;11.37;76.03;150510.36;1630671;88;20968;-63
2022/01/05 11:28:11;;;;;;;13.88;6.62;;;;;;;11.25;76.24;150480.50;1630294;88;21087;-62
2022/01/05 11:30:39;;;;;;;15.63;6.72;;;;;;;11.15;76.52;150455.84;1630596;88;21028;-63